Time;durP1;ratioP1;P1;durP2;ratioP2;P2;SDS_P1;SDS_P2;PMS_P1;PMS_P2;Temp;Humidity;BMP_temperature;BMP_pressure;BME280_temperature;BME280_humidity;BME280_pressure;Samples;Min_cycle;Max_cycle;Signal;HPM_P1;HPM_P2
2023/04/20 00:01:09;;;;;;;3.10;1.93;;;9.60;81.40;;;;;;5023442;28;20187;-65
2023/04/20 00:03:36;;;;;;;3.40;2.07;;;9.60;81.40;;;;;;5016622;28;20446;-64
2023/04/20 00:06:02;;;;;;;3.37;2.00;;;9.50;81.30;;;;;;5011420;28;20229;-64
2023/04/20 00:08:30;;;;;;;4.33;1.87;;;9.50;81.70;;;;;;5014143;28;20175;-64
2023/04/20 00:10:56;;;;;;;2.47;1.70;;;9.50;81.60;;;;;;5013186;28;20198;-64
2023/04/20 00:13:22;;;;;;;2.47;1.80;;;9.40;82.30;;;;;;5015579;28;20175;-66
2023/04/20 00:15:47;;;;;;;4.30;1.80;;;9.40;82.50;;;;;;5016808;28;20232;-65
2023/04/20 00:18:13;;;;;;;2.97;1.93;;;9.40;82.90;;;;;;5014312;28;20194;-65
2023/04/20 00:20:41;;;;;;;2.17;1.87;;;9.40;83.10;;;;;;5015576;28;20179;-66
2023/04/20 00:23:09;;;;;;;2.80;1.87;;;9.40;83.30;;;;;;5001342;28;20218;-65
2023/04/20 00:25:34;;;;;;;3.40;1.80;;;9.30;83.50;;;;;;5000122;28;20219;-65
2023/04/20 00:28:02;;;;;;;3.40;1.97;;;9.30;83.90;;;;;;5003847;28;20237;-65
2023/04/20 00:30:28;;;;;;;2.40;1.80;;;9.30;84.30;;;;;;5004163;28;20167;-65
2023/04/20 00:32:53;;;;;;;2.77;1.90;;;9.30;84.80;;;;;;5016544;28;20569;-65
2023/04/20 00:35:19;;;;;;;4.40;1.60;;;9.40;85.20;;;;;;5011624;28;20182;-65
2023/04/20 00:37:45;;;;;;;1.97;1.70;;;9.30;85.30;;;;;;5000300;28;20265;-65
2023/04/20 00:40:10;;;;;;;2.47;1.60;;;9.40;85.80;;;;;;5007535;28;20221;-65
2023/04/20 00:42:36;;;;;;;1.80;1.57;;;9.30;86.40;;;;;;5016762;28;20179;-65
2023/04/20 00:45:02;;;;;;;1.93;1.63;;;9.30;87.10;;;;;;5014883;28;20216;-66
2023/04/20 00:47:28;;;;;;;2.83;1.63;;;9.30;87.50;;;;;;5002019;28;20194;-67
2023/04/20 00:49:54;;;;;;;2.10;1.80;;;9.40;87.70;;;;;;5001981;28;20209;-64
2023/04/20 00:52:24;;;;;;;3.33;1.73;;;9.30;87.90;;;;;;4997252;28;20218;-66
2023/04/20 00:54:50;;;;;;;1.97;1.77;;;9.30;87.90;;;;;;4997343;28;20185;-66
2023/04/20 00:57:22;;;;;;;2.60;1.77;;;9.30;88.50;;;;;;5008452;28;20273;-65
2023/04/20 00:59:50;;;;;;;2.40;1.77;;;9.40;88.70;;;;;;5008537;28;20207;-66
2023/04/20 01:02:17;;;;;;;3.40;1.80;;;9.40;89.00;;;;;;5016329;28;20175;-66
2023/04/20 01:04:44;;;;;;;3.43;1.77;;;9.40;90.00;;;;;;4996864;28;20187;-65
2023/04/20 01:07:09;;;;;;;1.90;1.60;;;9.40;89.60;;;;;;5009037;28;20238;-66
2023/04/20 01:09:38;;;;;;;5.50;1.93;;;9.40;90.00;;;;;;4996818;28;20219;-66
2023/04/20 01:12:05;;;;;;;2.73;1.50;;;9.50;89.90;;;;;;5000506;28;20171;-65
2023/04/20 01:14:33;;;;;;;2.20;1.60;;;9.40;90.10;;;;;;5014885;28;20201;-65
2023/04/20 01:16:58;;;;;;;2.93;1.70;;;9.50;90.30;;;;;;4998971;28;20186;-66
2023/04/20 01:19:26;;;;;;;2.53;1.97;;;9.60;90.40;;;;;;5016174;28;20241;-65
2023/04/20 01:21:57;;;;;;;4.30;1.90;;;9.60;90.40;;;;;;4996514;28;20183;-65
2023/04/20 01:24:22;;;;;;;2.97;2.10;;;9.60;90.50;;;;;;5011334;28;20178;-64
2023/04/20 01:26:48;;;;;;;3.07;2.10;;;9.70;90.60;;;;;;5023668;28;20248;-65
2023/04/20 01:29:16;;;;;;;2.33;2.00;;;9.70;90.70;;;;;;4996196;28;20170;-65
2023/04/20 01:31:41;;;;;;;5.83;2.10;;;9.70;90.70;;;;;;4999146;28;20182;-64
2023/04/20 01:34:07;;;;;;;2.33;1.67;;;9.70;90.80;;;;;;5015011;28;20190;-65
2023/04/20 01:36:32;;;;;;;2.23;1.80;;;9.80;90.90;;;;;;5015289;28;20179;-65
2023/04/20 01:38:58;;;;;;;2.75;1.73;;;9.80;90.90;;;;;;5015325;28;20519;-65
2023/04/20 01:41:25;;;;;;;3.13;1.80;;;9.80;91.00;;;;;;5016649;28;20223;-65
2023/04/20 01:43:56;;;;;;;3.00;2.03;;;9.90;91.20;;;;;;5015849;28;20179;-65
2023/04/20 01:46:23;;;;;;;2.43;1.97;;;9.90;91.10;;;;;;5005699;28;20222;-64
2023/04/20 01:48:54;;;;;;;2.33;1.73;;;9.90;91.10;;;;;;5013814;28;20289;-64
2023/04/20 01:51:20;;;;;;;1.93;1.50;;;9.90;91.20;;;;;;5011617;28;20183;-65
2023/04/20 01:53:46;;;;;;;2.77;1.70;;;10.00;90.80;;;;;;5019631;28;20185;-65
2023/04/20 01:56:14;;;;;;;2.45;1.80;;;10.00;90.70;;;;;;5006033;28;20242;-65
2023/04/20 01:58:39;;;;;;;2.63;1.73;;;10.00;90.80;;;;;;5006450;28;20172;-65
2023/04/20 02:01:12;;;;;;;3.00;1.60;;;10.00;90.90;;;;;;5001344;28;20186;-65
2023/04/20 02:03:40;;;;;;;3.20;2.25;;;10.00;90.70;;;;;;4997277;28;20297;-65
2023/04/20 02:06:08;;;;;;;2.45;1.52;;;10.00;91.00;;;;;;4999080;28;20205;-64
2023/04/20 02:08:36;;;;;;;2.53;2.10;;;10.00;90.90;;;;;;5003217;28;20187;-64
2023/04/20 02:11:05;;;;;;;5.13;1.90;;;10.00;91.00;;;;;;5006916;28;20203;-64
2023/04/20 02:13:31;;;;;;;2.37;1.97;;;10.00;91.00;;;;;;4998789;28;20182;-66
2023/04/20 02:15:59;;;;;;;3.60;2.00;;;10.00;90.80;;;;;;5014675;28;20240;-65
2023/04/20 02:18:24;;;;;;;3.60;2.00;;;10.00;91.10;;;;;;5011279;28;20219;-64
2023/04/20 02:20:52;;;;;;;3.70;1.90;;;10.00;91.00;;;;;;5000582;28;20179;-65
2023/04/20 02:23:18;;;;;;;2.20;1.93;;;10.00;91.10;;;;;;5012314;28;20424;-64
2023/04/20 02:25:43;;;;;;;2.55;1.70;;;9.90;91.60;;;;;;5010147;28;20218;-64
2023/04/20 02:28:09;;;;;;;4.32;1.85;;;9.90;91.80;;;;;;5016390;28;20268;-64
2023/04/20 02:30:34;;;;;;;2.50;1.80;;;9.90;91.90;;;;;;4998527;28;20190;-64
2023/04/20 02:33:02;;;;;;;3.10;2.00;;;10.00;91.50;;;;;;4997355;28;20198;-65
2023/04/20 02:35:28;;;;;;;1.97;1.67;;;9.90;91.70;;;;;;5001207;28;20162;-64
2023/04/20 02:37:56;;;;;;;2.40;1.70;;;9.90;92.00;;;;;;5004393;28;20170;-65
2023/04/20 02:40:24;;;;;;;2.30;1.70;;;9.90;92.00;;;;;;5004038;28;20202;-65
2023/04/20 02:42:50;;;;;;;2.10;1.77;;;9.90;92.20;;;;;;4998945;28;20175;-65
2023/04/20 02:45:15;;;;;;;3.80;1.90;;;10.00;91.70;;;;;;5013717;28;20179;-64
2023/04/20 02:47:41;;;;;;;3.40;1.73;;;9.90;92.40;;;;;;5003843;28;20207;-64
2023/04/20 02:50:08;;;;;;;3.13;2.30;;;9.90;92.30;;;;;;5011903;28;20194;-64
2023/04/20 02:52:34;;;;;;;2.75;1.85;;;9.90;92.40;;;;;;4994183;28;20183;-64
2023/04/20 02:55:00;;;;;;;2.15;1.70;;;9.90;92.60;;;;;;5009837;28;20199;-64
2023/04/20 02:57:25;;;;;;;4.65;1.90;;;9.90;92.70;;;;;;5018053;28;20182;-65
2023/04/20 02:59:51;;;;;;;4.83;2.20;;;9.90;92.70;;;;;;4996675;28;20274;-64
2023/04/20 03:02:21;;;;;;;2.60;2.20;;;9.90;92.70;;;;;;4994678;28;20205;-64
2023/04/20 03:04:47;;;;;;;5.17;2.97;;;9.90;92.90;;;;;;5011869;28;20186;-65
2023/04/20 03:07:15;;;;;;;4.18;2.38;;;10.00;92.50;;;;;;5010882;28;20227;-64
2023/04/20 03:09:43;;;;;;;2.90;2.10;;;9.90;93.00;;;;;;5014554;28;20194;-66
2023/04/20 03:12:09;;;;;;;3.10;2.03;;;10.00;92.50;;;;;;4997135;28;20210;-65
2023/04/20 03:14:35;;;;;;;3.95;1.90;;;9.90;93.20;;;;;;5014418;28;20214;-65
2023/04/20 03:17:01;;;;;;;3.67;2.20;;;9.90;93.40;;;;;;4997434;28;20293;-64
2023/04/20 03:19:27;;;;;;;2.65;1.90;;;9.90;93.50;;;;;;4995957;28;20190;-65
2023/04/20 03:21:52;;;;;;;3.20;2.17;;;9.90;93.60;;;;;;5013519;28;20222;-65
2023/04/20 03:24:21;;;;;;;3.50;2.10;;;9.90;93.60;;;;;;5011094;28;20190;-65
2023/04/20 03:26:49;;;;;;;4.30;2.53;;;9.90;93.80;;;;;;4992665;28;20209;-65
2023/04/20 03:29:14;;;;;;;3.00;2.10;;;9.90;93.80;;;;;;4997468;28;20213;-65
2023/04/20 03:31:40;;;;;;;2.23;2.03;;;9.90;93.90;;;;;;4995962;28;20170;-65
2023/04/20 03:34:06;;;;;;;5.22;3.40;;;9.90;94.30;;;;;;5010436;28;20179;-64
2023/04/20 03:36:33;;;;;;;3.53;2.50;;;9.90;94.60;;;;;;4997178;28;20264;-65
2023/04/20 03:38:59;;;;;;;3.03;2.53;;;9.90;94.80;;;;;;5005111;28;20260;-64
2023/04/20 03:41:25;;;;;;;3.15;2.30;;;9.80;95.00;;;;;;4997653;28;20186;-65
2023/04/20 03:43:50;;;;;;;4.70;2.97;;;9.90;95.20;;;;;;5023179;28;20237;-64
2023/04/20 03:46:18;;;;;;;6.40;3.10;;;9.80;95.30;;;;;;4988875;28;20226;-65
2023/04/20 03:48:44;;;;;;;3.13;2.63;;;9.80;95.50;;;;;;4994741;28;20470;-65
2023/04/20 03:51:10;;;;;;;4.07;2.70;;;9.80;95.60;;;;;;5022557;28;20230;-64
2023/04/20 03:53:35;;;;;;;2.80;2.27;;;9.80;95.80;;;;;;5001515;28;20174;-65
2023/04/20 03:56:03;;;;;;;4.27;2.50;;;9.80;96.00;;;;;;5000854;28;20186;-64
2023/04/20 03:58:29;;;;;;;3.40;2.53;;;9.80;96.10;;;;;;5012965;28;20198;-65
2023/04/20 04:01:03;;;;;;;3.17;2.20;;;9.80;96.30;;;;;;4994080;28;20198;-65
2023/04/20 04:03:28;;;;;;;4.57;2.17;;;9.90;96.20;;;;;;4995495;28;20217;-65
2023/04/20 04:05:54;;;;;;;3.13;2.40;;;9.80;96.40;;;;;;4999375;28;20202;-65
2023/04/20 04:08:22;;;;;;;3.70;2.67;;;9.80;96.60;;;;;;5015753;28;20190;-64
2023/04/20 04:10:50;;;;;;;3.47;2.77;;;9.70;96.40;;;;;;5018008;28;20181;-64
2023/04/20 04:13:15;;;;;;;4.17;2.30;;;9.70;96.50;;;;;;5000883;28;20202;-65
2023/04/20 04:15:41;;;;;;;3.67;2.50;;;9.80;96.60;;;;;;5018861;28;20167;-64
2023/04/20 04:18:07;;;;;;;2.73;2.17;;;9.60;96.70;;;;;;5003130;28;20210;-65
2023/04/20 04:20:32;;;;;;;2.20;1.87;;;9.60;97.00;;;;;;5014416;28;20279;-64
2023/04/20 04:22:58;;;;;;;2.60;2.40;;;9.60;97.30;;;;;;5000713;28;20175;-63
2023/04/20 04:25:24;;;;;;;3.63;2.30;;;9.50;97.50;;;;;;5000313;28;20178;-66
2023/04/20 04:27:50;;;;;;;4.03;2.70;;;9.50;97.70;;;;;;5005504;28;20198;-65
2023/04/20 04:30:16;;;;;;;4.23;3.33;;;9.40;97.90;;;;;;5011749;28;20267;-65
2023/04/20 04:32:47;;;;;;;4.13;2.83;;;9.40;98.10;;;;;;4998401;28;20162;-65
2023/04/20 04:35:14;;;;;;;3.37;2.50;;;9.40;98.40;;;;;;5011697;28;20201;-66
2023/04/20 04:37:42;;;;;;;3.23;2.77;;;9.30;98.70;;;;;;5005563;28;20272;-64
2023/04/20 04:40:10;;;;;;;3.47;2.50;;;9.40;99.10;;;;;;4998577;28;20214;-65
2023/04/20 04:42:36;;;;;;;2.67;2.27;;;9.30;99.20;;;;;;5012414;28;20182;-65
2023/04/20 04:45:04;;;;;;;4.53;2.77;;;9.30;99.50;;;;;;5024171;28;20170;-64
2023/04/20 04:47:37;;;;;;;8.47;6.10;;;9.30;99.80;;;;;;5012689;28;20206;-65
2023/04/20 04:50:04;;;;;;;6.57;3.20;;;9.30;99.90;;;;;;5008871;28;20205;-65
2023/04/20 04:52:31;;;;;;;3.50;2.83;;;9.30;99.90;;;;;;5015959;28;20173;-65
2023/04/20 04:54:57;;;;;;;3.53;2.80;;;9.30;99.90;;;;;;5007623;28;20257;-66
2023/04/20 04:57:26;;;;;;;5.17;2.90;;;9.20;99.90;;;;;;4997160;28;20194;-65
2023/04/20 04:59:51;;;;;;;4.27;3.00;;;9.20;99.90;;;;;;5015725;28;20252;-65
2023/04/20 05:02:17;;;;;;;3.70;2.70;;;9.20;99.90;;;;;;4996010;28;20168;-65
2023/04/20 05:04:43;;;;;;;3.97;2.37;;;9.10;99.90;;;;;;5002881;28;20179;-65
2023/04/20 05:07:14;;;;;;;3.50;2.50;;;9.10;99.90;;;;;;4993503;28;20250;-64
2023/04/20 05:09:42;;;;;;;3.97;2.37;;;9.10;99.90;;;;;;5013934;28;20178;-65
2023/04/20 05:12:12;;;;;;;4.57;2.83;;;9.10;99.90;;;;;;4996085;28;20175;-64
2023/04/20 05:14:38;;;;;;;3.50;2.63;;;9.10;99.90;;;;;;5023657;28;20228;-65
2023/04/20 05:17:04;;;;;;;2.83;2.47;;;9.00;99.90;;;;;;5012057;28;20261;-64
2023/04/20 05:19:32;;;;;;;3.73;2.53;;;9.00;99.90;;;;;;5012498;28;20339;-66
2023/04/20 05:21:57;;;;;;;3.50;2.50;;;9.00;99.90;;;;;;4996854;28;20191;-65
2023/04/20 05:24:23;;;;;;;3.60;2.60;;;9.10;99.90;;;;;;4998921;28;20197;-65
2023/04/20 05:26:49;;;;;;;3.57;2.53;;;9.00;99.90;;;;;;4991967;28;20306;-64
2023/04/20 05:29:15;;;;;;;3.03;2.50;;;9.00;99.90;;;;;;4994296;28;20179;-64
2023/04/20 05:31:41;;;;;;;3.20;2.40;;;9.00;99.90;;;;;;5024213;28;20174;-65
2023/04/20 05:34:09;;;;;;;3.33;2.70;;;9.00;99.90;;;;;;4998521;28;20481;-65
2023/04/20 05:36:34;;;;;;;3.67;2.63;;;9.00;99.90;;;;;;4999065;28;20177;-65
2023/04/20 05:39:05;;;;;;;3.93;2.67;;;9.00;99.90;;;;;;4993741;28;20283;-65
2023/04/20 05:41:30;;;;;;;3.60;2.50;;;9.00;99.90;;;;;;4997109;28;20204;-65
2023/04/20 05:43:58;;;;;;;3.47;2.57;;;9.10;99.90;;;;;;5006430;28;20241;-65
2023/04/20 05:46:24;;;;;;;3.87;2.30;;;9.10;99.90;;;;;;5001088;28;20205;-64
2023/04/20 05:48:50;;;;;;;2.97;2.27;;;9.00;99.90;;;;;;4997054;28;20195;-65
2023/04/20 05:51:15;;;;;;;3.53;2.70;;;9.00;99.90;;;;;;4995490;28;20205;-65
2023/04/20 05:53:43;;;;;;;3.20;2.83;;;9.00;99.90;;;;;;4995820;28;20194;-65
2023/04/20 05:56:09;;;;;;;3.10;2.80;;;9.00;99.90;;;;;;5005555;28;20261;-65
2023/04/20 05:58:37;;;;;;;3.97;2.63;;;9.00;99.90;;;;;;4993430;28;20242;-64
2023/04/20 06:01:06;;;;;;;3.30;2.80;;;9.10;99.90;;;;;;4992952;28;20210;-65
2023/04/20 06:03:32;;;;;;;3.17;2.70;;;9.00;99.90;;;;;;5006019;28;20187;-65
2023/04/20 06:05:57;;;;;;;4.37;3.50;;;8.90;99.90;;;;;;5007588;28;20203;-65
2023/04/20 06:08:23;;;;;;;3.63;3.10;;;8.90;99.90;;;;;;5010824;28;20175;-64
2023/04/20 06:10:56;;;;;;;4.03;2.83;;;8.90;99.90;;;;;;4996309;28;20182;-64
2023/04/20 06:13:21;;;;;;;3.67;2.93;;;8.90;99.90;;;;;;4991698;28;20196;-64
2023/04/20 06:15:47;;;;;;;4.37;2.80;;;8.90;99.90;;;;;;5009774;28;20175;-65
2023/04/20 06:18:13;;;;;;;4.27;2.80;;;9.00;99.90;;;;;;5009134;28;20278;-65
2023/04/20 06:20:39;;;;;;;3.70;2.87;;;8.90;99.90;;;;;;5008505;28;20233;-64
2023/04/20 06:23:05;;;;;;;3.83;3.17;;;8.80;99.90;;;;;;4997900;28;20253;-64
2023/04/20 06:25:30;;;;;;;3.87;3.07;;;8.80;99.90;;;;;;4994745;28;20197;-66
2023/04/20 06:27:56;;;;;;;4.47;3.00;;;8.80;99.90;;;;;;4998161;28;20261;-65
2023/04/20 06:30:22;;;;;;;6.10;3.33;;;8.80;99.90;;;;;;4999372;28;20179;-66
2023/04/20 06:32:47;;;;;;;4.73;3.00;;;8.70;99.90;;;;;;4999648;28;20318;-64
2023/04/20 06:35:15;;;;;;;4.30;2.73;;;8.80;99.90;;;;;;5004663;28;20178;-65
2023/04/20 06:37:41;;;;;;;4.07;2.90;;;8.80;99.90;;;;;;4998711;28;20183;-65
2023/04/20 06:40:07;;;;;;;3.83;2.43;;;8.80;99.90;;;;;;4997594;28;20252;-65
2023/04/20 06:42:33;;;;;;;2.90;2.50;;;8.80;99.90;;;;;;4994147;28;20195;-64
2023/04/20 06:44:59;;;;;;;3.17;2.80;;;8.80;99.90;;;;;;4995840;28;20190;-65
2023/04/20 06:47:30;;;;;;;3.37;2.90;;;8.80;99.90;;;;;;5007929;28;20202;-66
2023/04/20 06:50:01;;;;;;;4.07;3.10;;;8.90;99.90;;;;;;5003795;28;20281;-65
2023/04/20 06:52:30;;;;;;;2.73;2.40;;;8.90;99.90;;;;;;4981323;28;20187;-65
2023/04/20 06:54:59;;;;;;;3.40;2.57;;;9.00;99.90;;;;;;5002399;28;20194;-66
2023/04/20 06:57:25;;;;;;;3.00;2.57;;;8.80;99.90;;;;;;5003071;28;20207;-66
2023/04/20 06:59:50;;;;;;;3.93;2.60;;;8.90;99.90;;;;;;4984406;28;20186;-66
2023/04/20 07:02:16;;;;;;;3.33;2.70;;;8.90;99.90;;;;;;5014719;28;20237;-65
2023/04/20 07:04:43;;;;;;;3.70;2.40;;;8.90;99.90;;;;;;4994901;28;20189;-66
2023/04/20 07:07:09;;;;;;;4.00;2.70;;;8.90;99.90;;;;;;5011076;28;20249;-65
2023/04/20 07:09:35;;;;;;;2.80;2.50;;;8.90;99.90;;;;;;5010274;28;20348;-65
2023/04/20 07:12:01;;;;;;;3.00;2.70;;;8.80;99.90;;;;;;4998080;28;20209;-65
2023/04/20 07:14:27;;;;;;;3.77;2.70;;;8.90;99.90;;;;;;5014917;28;20199;-66
2023/04/20 07:16:55;;;;;;;3.17;2.50;;;8.90;99.90;;;;;;5014606;28;20223;-66
2023/04/20 07:19:23;;;;;;;2.80;2.50;;;9.00;99.90;;;;;;5012667;28;20229;-65
2023/04/20 07:21:48;;;;;;;2.90;2.60;;;8.90;99.90;;;;;;5009058;28;20215;-65
2023/04/20 07:24:16;;;;;;;3.07;2.50;;;9.00;99.90;;;;;;4998467;28;20468;-66
2023/04/20 07:26:42;;;;;;;3.80;2.70;;;9.00;99.90;;;;;;4997260;28;20299;-66
2023/04/20 07:29:10;;;;;;;3.07;2.60;;;9.00;99.90;;;;;;5013752;28;20270;-66
2023/04/20 07:31:38;;;;;;;3.00;2.60;;;9.10;99.90;;;;;;5003071;28;20218;-66
2023/04/20 07:34:06;;;;;;;3.50;2.70;;;9.20;99.90;;;;;;5011316;28;20183;-67
2023/04/20 07:36:33;;;;;;;2.83;2.40;;;9.10;99.90;;;;;;4994907;28;20186;-65
2023/04/20 07:39:01;;;;;;;4.97;3.10;;;9.20;99.90;;;;;;5016855;28;20194;-66
2023/04/20 07:41:29;;;;;;;2.83;2.60;;;9.20;99.90;;;;;;5001556;28;20178;-66
2023/04/20 07:43:55;;;;;;;3.40;2.97;;;9.30;99.90;;;;;;5001827;28;20178;-66
2023/04/20 07:46:21;;;;;;;3.97;3.00;;;9.30;99.90;;;;;;4990178;28;20213;-66
2023/04/20 07:48:47;;;;;;;3.93;2.97;;;9.40;99.90;;;;;;4993877;28;20188;-66
2023/04/20 07:51:13;;;;;;;3.60;2.67;;;9.40;99.90;;;;;;4999507;28;20175;-66
2023/04/20 07:53:38;;;;;;;3.70;2.60;;;9.40;99.90;;;;;;5018073;28;20182;-65
2023/04/20 07:56:04;;;;;;;2.90;2.60;;;9.40;99.90;;;;;;5000758;28;20289;-65
2023/04/20 07:58:33;;;;;;;3.80;2.50;;;9.40;99.90;;;;;;4999091;28;20199;-65
2023/04/20 08:00:59;;;;;;;2.50;2.30;;;9.40;99.90;;;;;;5011281;28;20217;-65
2023/04/20 08:03:27;;;;;;;2.83;2.50;;;9.50;99.90;;;;;;4998331;28;20219;-67
2023/04/20 08:05:53;;;;;;;2.87;2.50;;;9.40;99.90;;;;;;5000602;28;20171;-66
2023/04/20 08:08:18;;;;;;;3.13;2.33;;;9.40;99.90;;;;;;5011963;28;20180;-66
2023/04/20 08:10:44;;;;;;;2.60;2.30;;;9.40;99.90;;;;;;5008691;28;20217;-66
2023/04/20 08:13:10;;;;;;;3.40;2.80;;;9.50;99.90;;;;;;5016427;28;20174;-66
2023/04/20 08:15:36;;;;;;;2.67;2.37;;;9.50;99.90;;;;;;4999148;28;20174;-66
2023/04/20 08:18:06;;;;;;;2.47;2.27;;;9.50;99.90;;;;;;5000784;28;20199;-64
2023/04/20 08:20:31;;;;;;;2.33;2.00;;;9.50;99.90;;;;;;5005216;28;20234;-65
2023/04/20 08:22:57;;;;;;;2.22;2.03;;;9.60;99.90;;;;;;5013378;28;20187;-66
2023/04/20 08:25:23;;;;;;;2.45;2.15;;;9.60;99.90;;;;;;4998144;28;20187;-66
2023/04/20 08:27:48;;;;;;;2.40;2.20;;;9.70;99.90;;;;;;5005876;28;20222;-67
2023/04/20 08:30:14;;;;;;;2.25;2.00;;;9.80;99.90;;;;;;5001029;28;20183;-64
2023/04/20 08:32:43;;;;;;;2.10;1.83;;;9.80;99.90;;;;;;5005463;28;20185;-65
2023/04/20 08:35:08;;;;;;;1.90;1.70;;;9.80;99.90;;;;;;5016590;28;20206;-65
2023/04/20 08:37:36;;;;;;;2.42;2.00;;;9.90;99.90;;;;;;5010135;28;20245;-65
2023/04/20 08:40:02;;;;;;;2.00;1.80;;;9.90;99.90;;;;;;4989007;28;20226;-66
2023/04/20 08:42:28;;;;;;;3.03;1.80;;;9.90;99.90;;;;;;5000671;28;20190;-65
2023/04/20 08:44:54;;;;;;;1.65;1.55;;;9.90;99.90;;;;;;5017255;28;20237;-64
2023/04/20 08:47:20;;;;;;;1.90;1.70;;;9.90;99.90;;;;;;5008178;28;20195;-64
2023/04/20 08:49:47;;;;;;;1.80;1.70;;;9.90;99.90;;;;;;4983427;28;20282;-65
2023/04/20 08:52:13;;;;;;;1.73;1.50;;;9.80;99.90;;;;;;5004275;28;20436;-65
2023/04/20 08:54:39;;;;;;;1.83;1.58;;;9.80;99.90;;;;;;4997706;28;20190;-65
2023/04/20 08:57:04;;;;;;;1.70;1.50;;;9.80;99.90;;;;;;4996994;28;20179;-66
2023/04/20 08:59:33;;;;;;;1.63;1.53;;;9.80;99.90;;;;;;4996262;28;20210;-66
2023/04/20 09:02:13;;;;;;;1.85;1.50;;;9.80;99.90;;;;;;5001333;28;20179;-65
2023/04/20 09:04:41;;;;;;;1.73;1.50;;;9.80;99.90;;;;;;5003486;28;20193;-66
2023/04/20 09:07:19;;;;;;;1.90;1.50;;;9.80;99.90;;;;;;5016878;28;20199;-66
2023/04/20 09:10:02;;;;;;;2.00;1.60;;;9.80;99.90;;;;;;5009648;28;20185;-66
2023/04/20 09:12:39;;;;;;;1.90;1.52;;;9.90;99.90;;;;;;4980571;28;20226;-64
2023/04/20 09:15:09;;;;;;;1.70;1.60;;;10.00;99.90;;;;;;4981141;28;20195;-65
2023/04/20 09:17:39;;;;;;;1.58;1.48;;;10.10;99.90;;;;;;5001470;28;20186;-67
2023/04/20 09:20:05;;;;;;;1.63;1.52;;;10.20;99.90;;;;;;4996922;28;20194;-66
2023/04/20 09:22:32;;;;;;;1.83;1.67;;;10.20;99.90;;;;;;5014927;28;20179;-65
2023/04/20 09:25:00;;;;;;;1.88;1.48;;;10.30;99.90;;;;;;4999095;28;20191;-65
2023/04/20 09:27:28;;;;;;;1.30;1.20;;;10.30;99.90;;;;;;5016284;28;20246;-65
2023/04/20 09:30:02;;;;;;;1.30;1.20;;;10.30;99.90;;;;;;4999896;28;20183;-68
2023/04/20 09:32:29;;;;;;;1.30;1.20;;;10.40;99.90;;;;;;4999150;28;20177;-65
2023/04/20 09:34:57;;;;;;;1.35;1.25;;;10.40;99.90;;;;;;5009361;28;20206;-66
2023/04/20 09:37:26;;;;;;;1.90;1.42;;;10.50;99.90;;;;;;5013321;28;20183;-67
2023/04/20 09:39:56;;;;;;;1.80;1.48;;;10.60;99.90;;;;;;4998282;28;20202;-66
2023/04/20 09:42:32;;;;;;;2.22;1.50;;;10.80;99.90;;;;;;4998310;28;20187;-66
2023/04/20 09:44:59;;;;;;;1.60;1.48;;;10.90;99.90;;;;;;4996231;28;20189;-66
2023/04/20 09:47:30;;;;;;;1.65;1.50;;;11.00;99.90;;;;;;4996522;28;20199;-67
2023/04/20 09:49:59;;;;;;;1.55;1.42;;;11.20;99.90;;;;;;5005744;28;20183;-66
2023/04/20 09:52:26;;;;;;;1.70;1.60;;;11.30;99.90;;;;;;4997173;28;20176;-65
2023/04/20 09:54:52;;;;;;;1.70;1.60;;;11.40;99.90;;;;;;5000675;28;20247;-66
2023/04/20 09:57:18;;;;;;;1.75;1.50;;;11.40;99.90;;;;;;4999193;28;20285;-65
2023/04/20 09:59:45;;;;;;;2.20;1.40;;;11.40;99.90;;;;;;4998554;28;20186;-66
2023/04/20 10:02:12;;;;;;;2.05;1.65;;;11.30;99.90;;;;;;4999098;28;20210;-66
2023/04/20 10:04:57;;;;;;;1.88;1.60;;;11.20;99.90;;;;;;4999722;28;20182;-67
2023/04/20 10:07:27;;;;;;;3.17;1.45;;;11.10;99.90;;;;;;4988841;28;20195;-66
2023/04/20 10:10:06;;;;;;;1.90;1.67;;;11.00;99.90;;;;;;4979266;28;20183;-66
2023/04/20 10:12:50;;;;;;;1.60;1.50;;;10.80;99.90;;;;;;4991999;28;20197;-66
2023/04/20 10:15:21;;;;;;;1.90;1.50;;;10.80;99.90;;;;;;4991149;28;20187;-66
2023/04/20 10:17:47;;;;;;;2.00;1.70;;;10.70;99.90;;;;;;4994790;28;20293;-66
2023/04/20 10:20:26;;;;;;;2.00;1.63;;;10.70;99.90;;;;;;5010646;28;20290;-65
2023/04/20 10:23:04;;;;;;;2.25;1.77;;;10.80;99.90;;;;;;5014874;28;20224;-66
2023/04/20 10:25:30;;;;;;;1.83;1.40;;;10.80;99.90;;;;;;4998298;28;20229;-65
2023/04/20 10:28:04;;;;;;;1.80;1.63;;;11.00;99.90;;;;;;4998783;28;20277;-66
2023/04/20 10:30:31;;;;;;;1.65;1.50;;;11.10;99.90;;;;;;5000729;28;20253;-66
2023/04/20 10:33:11;;;;;;;2.08;1.40;;;11.20;99.90;;;;;;5014831;28;20193;-66
2023/04/20 10:35:58;;;;;;;1.30;1.20;;;11.50;99.90;;;;;;4993163;28;20248;-66
2023/04/20 10:38:31;;;;;;;1.13;0.93;;;11.50;99.90;;;;;;4996195;28;20198;-66
2023/04/20 10:41:09;;;;;;;1.90;1.10;;;11.70;99.90;;;;;;5006338;28;20178;-66
2023/04/20 10:43:40;;;;;;;1.13;1.02;;;11.60;99.90;;;;;;4995200;28;20199;-66
2023/04/20 10:46:33;;;;;;;1.20;1.10;;;11.70;99.90;;;;;;4994876;28;20183;-66
2023/04/20 10:49:01;;;;;;;1.48;1.20;;;11.70;99.90;;;;;;4987624;28;20187;-66
2023/04/20 10:51:30;;;;;;;1.10;0.95;;;11.70;99.90;;;;;;5010438;28;20186;-66
2023/04/20 10:54:04;;;;;;;1.23;0.98;;;11.60;99.90;;;;;;4997622;28;20178;-66
2023/04/20 10:56:37;;;;;;;1.10;1.00;;;11.60;99.90;;;;;;5014198;28;20178;-66
2023/04/20 10:59:07;;;;;;;1.42;1.00;;;11.60;99.90;;;;;;4993835;28;20207;-66
2023/04/20 11:01:33;;;;;;;1.30;1.05;;;11.50;99.90;;;;;;4998935;28;20205;-66
2023/04/20 11:03:58;;;;;;;3.17;1.30;;;11.40;99.90;;;;;;4995449;28;20179;-66
2023/04/20 11:06:25;;;;;;;1.58;1.25;;;11.40;99.90;;;;;;5003072;28;20190;-66
2023/04/20 11:08:53;;;;;;;1.35;1.10;;;11.50;99.90;;;;;;4998004;28;20193;-66
2023/04/20 11:11:20;;;;;;;3.40;1.27;;;11.40;99.90;;;;;;4996641;28;20187;-66
2023/04/20 11:13:47;;;;;;;1.65;1.48;;;11.70;99.90;;;;;;5013763;28;20178;-66
2023/04/20 11:16:14;;;;;;;1.60;1.48;;;12.10;99.90;;;;;;5010850;28;20179;-66
2023/04/20 11:18:53;;;;;;;1.50;1.40;;;12.30;99.90;;;;;;4997139;28;20194;-65
2023/04/20 11:21:20;;;;;;;1.88;1.42;;;12.40;99.90;;;;;;5008212;28;20175;-66
2023/04/20 11:23:50;;;;;;;2.25;1.88;;;12.50;99.90;;;;;;4996598;28;20203;-65
2023/04/20 11:26:18;;;;;;;2.05;1.83;;;12.40;99.90;;;;;;5005544;28;20190;-66
2023/04/20 11:28:53;;;;;;;2.00;1.80;;;12.40;99.90;;;;;;4986275;28;20179;-66
2023/04/20 11:31:22;;;;;;;2.08;1.70;;;12.20;99.90;;;;;;4994253;28;20174;-67
2023/04/20 11:33:47;;;;;;;2.25;2.05;;;12.20;99.90;;;;;;4996965;28;20210;-65
2023/04/20 11:36:28;;;;;;;1.95;1.70;;;12.20;99.90;;;;;;5003559;28;20182;-65
2023/04/20 11:39:00;;;;;;;2.72;2.10;;;12.20;99.90;;;;;;5009866;28;20182;-65
2023/04/20 11:41:26;;;;;;;2.58;2.10;;;12.30;99.90;;;;;;5013878;28;20178;-66
2023/04/20 11:43:54;;;;;;;2.38;2.17;;;12.40;99.90;;;;;;5014073;28;20171;-65
2023/04/20 11:46:22;;;;;;;3.30;3.00;;;12.60;99.90;;;;;;4998016;28;20245;-67
2023/04/20 11:48:52;;;;;;;3.97;2.83;;;12.70;99.90;;;;;;4997074;28;20198;-65
2023/04/20 11:51:23;;;;;;;4.18;3.00;;;12.90;99.90;;;;;;5013822;28;20194;-65
2023/04/20 11:53:48;;;;;;;3.05;2.67;;;13.10;99.90;;;;;;5013586;28;20178;-65
2023/04/20 11:56:14;;;;;;;2.92;2.63;;;13.20;99.90;;;;;;5013318;28;20241;-66
2023/04/20 11:58:40;;;;;;;3.05;2.75;;;13.30;99.90;;;;;;5012786;28;20195;-66
2023/04/20 12:01:07;;;;;;;5.05;2.88;;;13.30;99.90;;;;;;4997573;28;20450;-66
2023/04/20 12:03:33;;;;;;;3.03;2.20;;;13.30;99.90;;;;;;4998973;28;20175;-66
2023/04/20 12:06:01;;;;;;;2.80;2.30;;;13.30;99.90;;;;;;4998621;28;20179;-66
2023/04/20 12:08:27;;;;;;;3.08;2.10;;;13.20;99.90;;;;;;4998421;28;20198;-65
2023/04/20 12:10:57;;;;;;;3.13;2.58;;;13.20;99.90;;;;;;4998443;28;20245;-65
2023/04/20 12:13:23;;;;;;;3.15;2.28;;;13.20;99.90;;;;;;5015818;28;20198;-65
2023/04/20 12:15:48;;;;;;;3.20;2.40;;;13.20;99.90;;;;;;5003516;28;20190;-65
2023/04/20 12:18:16;;;;;;;2.40;2.20;;;13.10;99.90;;;;;;4996947;28;20198;-65
2023/04/20 12:20:45;;;;;;;2.67;2.05;;;13.20;99.90;;;;;;5000609;28;20206;-65
2023/04/20 12:23:11;;;;;;;2.30;2.10;;;13.20;99.90;;;;;;5014182;28;20186;-66
2023/04/20 12:25:37;;;;;;;2.38;2.03;;;13.30;99.90;;;;;;5016385;28;20201;-64
2023/04/20 12:28:05;;;;;;;3.03;2.22;;;13.30;99.90;;;;;;4996579;28;20199;-65
2023/04/20 12:30:34;;;;;;;4.15;2.72;;;13.40;99.90;;;;;;4987999;28;20202;-65
2023/04/20 12:33:05;;;;;;;3.03;2.72;;;13.50;99.90;;;;;;5001193;28;20422;-65
2023/04/20 12:35:31;;;;;;;3.40;3.00;;;13.60;99.90;;;;;;5015997;28;20277;-65
2023/04/20 12:37:56;;;;;;;3.30;2.97;;;13.70;99.90;;;;;;4996472;28;20218;-65
2023/04/20 12:40:22;;;;;;;4.13;2.80;;;13.80;99.90;;;;;;4996806;28;20187;-65
2023/04/20 12:42:48;;;;;;;4.47;2.50;;;13.90;99.90;;;;;;5006802;28;20205;-65
2023/04/20 12:45:14;;;;;;;2.78;2.53;;;14.10;99.90;;;;;;4999374;28;20186;-65
2023/04/20 12:47:39;;;;;;;2.72;2.50;;;14.30;99.90;;;;;;4999936;28;20195;-65
2023/04/20 12:50:08;;;;;;;2.60;2.30;;;14.40;99.90;;;;;;5000233;28;20281;-65
2023/04/20 12:52:33;;;;;;;2.92;2.58;;;14.50;99.90;;;;;;4997321;28;20183;-65
2023/04/20 12:55:00;;;;;;;3.40;3.00;;;14.50;99.90;;;;;;5008425;28;20237;-65